Time;durP1;ratioP1;P1;durP2;ratioP2;P2;SDS_P1;SDS_P2;PMS_P1;PMS_P2;Temp;Humidity;BMP_temperature;BMP_pressure;BME280_temperature;BME280_humidity;BME280_pressure;Samples;Min_cycle;Max_cycle;Signal;HPM_P1;HPM_P2
2024/01/09 00:03:35;;;;;;;2.65;1.50;;;;;;;14.06;42.05;103346.31;21016037;28;20060;-66
2024/01/09 00:13:37;;;;;;;2.25;1.52;;;;;;;14.12;41.52;103320.25;21016145;28;20062;-67
2024/01/09 00:23:38;;;;;;;1.70;1.27;;;;;;;14.18;41.41;103326.28;21031761;28;20054;-66
2024/01/09 00:33:40;;;;;;;1.90;1.40;;;;;;;14.23;41.22;103312.72;21014978;28;20058;-67
2024/01/09 00:43:43;;;;;;;2.38;1.55;;;;;;;14.26;41.02;103317.97;20993055;28;20064;-64
2024/01/09 00:53:44;;;;;;;1.92;1.52;;;;;;;14.32;41.09;103311.53;20992275;28;20431;-66
2024/01/09 01:03:46;;;;;;;1.70;1.30;;;;;;;14.41;40.52;103311.22;21022725;28;20940;-66
2024/01/09 01:13:48;;;;;;;1.60;1.30;;;;;;;14.55;40.11;103308.03;21016939;28;20055;-64
2024/01/09 01:23:50;;;;;;;1.33;1.20;;;;;;;14.74;39.82;103326.16;21018914;28;20052;-64
2024/01/09 01:33:52;;;;;;;1.77;1.17;;;;;;;14.85;39.74;103318.59;21040041;28;20044;-64
2024/01/09 01:43:54;;;;;;;2.80;1.45;;;;;;;14.91;39.40;103334.47;21004398;28;20119;-66
2024/01/09 01:53:55;;;;;;;2.25;1.40;;;;;;;15.01;39.35;103326.94;21018662;28;20803;-66
2024/01/09 02:03:58;;;;;;;1.60;1.30;;;;;;;14.90;39.04;103316.63;21018861;28;20553;-66
2024/01/09 02:14:00;;;;;;;2.08;1.40;;;;;;;14.98;39.09;103336.91;21015386;28;20079;-64
2024/01/09 02:24:02;;;;;;;2.50;1.45;;;;;;;14.96;38.85;103334.31;21001535;28;20043;-64
2024/01/09 02:34:04;;;;;;;1.50;1.10;;;;;;;14.93;39.18;103321.00;21037611;28;20105;-64
2024/01/09 02:44:09;;;;;;;2.53;1.77;;;;;;;14.89;38.80;103320.22;21009157;28;20048;-66
2024/01/09 02:54:10;;;;;;;1.30;1.08;;;;;;;14.88;38.95;103315.81;21019536;28;20072;-66
2024/01/09 03:04:12;;;;;;;1.63;1.00;;;;;;;14.87;39.03;103315.88;21012409;28;20511;-64
2024/01/09 03:14:14;;;;;;;1.80;1.20;;;;;;;14.71;38.84;103300.34;20995951;28;20101;-64
2024/01/09 03:24:16;;;;;;;1.30;1.05;;;;;;;14.81;38.66;103319.66;21036222;28;20397;-63
2024/01/09 03:34:18;;;;;;;1.75;1.30;;;;;;;14.73;38.76;103311.03;21012993;28;20052;-64
2024/01/09 03:44:20;;;;;;;1.55;1.15;;;;;;;14.64;38.70;103307.72;21004613;28;20051;-64
2024/01/09 03:54:22;;;;;;;1.60;1.10;;;;;;;14.60;38.61;103299.81;21009788;28;20055;-65
2024/01/09 04:04:24;;;;;;;1.83;1.10;;;;;;;14.52;38.89;103321.53;20993859;28;20054;-65
2024/01/09 04:14:29;;;;;;;;;;;;;;;14.54;38.54;103313.44;20998895;28;20048;-64
2024/01/09 04:24:32;;;;;;;1.20;0.90;;;;;;;14.42;38.66;103315.66;21023465;28;20007;-64
2024/01/09 04:34:36;;;;;;;1.60;1.00;;;;;;;14.42;38.81;103317.44;21015322;28;20052;-67
2024/01/09 04:44:38;;;;;;;1.10;1.00;;;;;;;14.46;38.34;103321.75;20992480;28;20119;-64
2024/01/09 04:54:40;;;;;;;1.52;1.02;;;;;;;14.48;37.89;103327.94;20988572;28;20072;-64
2024/01/09 05:04:42;;;;;;;2.38;1.17;;;;;;;14.42;38.34;103326.38;21007500;28;20047;-64
2024/01/09 05:14:44;;;;;;;1.42;1.08;;;;;;;14.46;37.89;103324.44;20972414;28;20130;-64
2024/01/09 05:24:45;;;;;;;1.38;1.00;;;;;;;14.38;38.02;103329.19;21009877;28;20159;-66
2024/01/09 05:34:47;;;;;;;1.50;1.10;;;;;;;14.30;38.24;103325.00;20970683;28;20040;-66
2024/01/09 05:44:49;;;;;;;1.40;1.05;;;;;;;14.27;37.74;103325.09;20973028;28;20056;-66
2024/01/09 05:54:51;;;;;;;1.77;1.27;;;;;;;14.25;37.96;103332.31;21006894;28;20051;-66
2024/01/09 06:04:53;;;;;;;1.02;0.90;;;;;;;14.27;37.42;103341.16;21008189;28;20604;-67
2024/01/09 06:14:54;;;;;;;1.65;1.23;;;;;;;14.30;37.57;103337.50;21040993;28;20143;-67
2024/01/09 06:24:57;;;;;;;1.02;0.80;;;;;;;14.12;37.39;103355.06;21025451;28;20113;-66
2024/01/09 06:34:58;;;;;;;1.83;1.35;;;;;;;14.11;37.52;103364.03;21017785;28;20047;-66
2024/01/09 06:45:00;;;;;;;0.98;0.88;;;;;;;14.02;37.82;103368.78;20993859;28;20499;-66
2024/01/09 06:55:03;;;;;;;1.73;1.30;;;;;;;14.05;37.29;103368.66;21021432;28;20056;-66
2024/01/09 07:05:05;;;;;;;2.00;1.40;;;;;;;14.09;37.45;103368.56;20999897;28;20071;-66
2024/01/09 07:15:08;;;;;;;1.98;1.42;;;;;;;14.11;37.42;103374.75;20994604;28;20047;-66
2024/01/09 07:25:10;;;;;;;1.83;1.10;;;;;;;14.03;37.09;103386.59;21003633;28;20044;-66
2024/01/09 07:35:12;;;;;;;1.90;1.20;;;;;;;14.00;37.00;103392.06;21005510;28;20052;-66
2024/01/09 07:45:14;;;;;;;1.40;1.10;;;;;;;14.00;37.27;103397.41;21024482;28;20048;-66
2024/01/09 07:55:16;;;;;;;1.50;1.17;;;;;;;13.91;37.10;103406.59;21010862;28;20051;-66
2024/01/09 08:05:17;;;;;;;1.90;1.13;;;;;;;13.85;37.23;103403.25;21009095;28;20044;-64
2024/01/09 08:15:19;;;;;;;2.65;1.60;;;;;;;13.87;37.28;103406.75;20988368;28;20048;-64
2024/01/09 08:25:21;;;;;;;1.70;1.27;;;;;;;14.03;36.96;103399.13;20993646;28;20055;-65
2024/01/09 08:35:23;;;;;;;1.77;1.63;;;;;;;14.39;36.80;103409.56;21024998;28;20411;-64
2024/01/09 08:45:25;;;;;;;1.70;1.30;;;;;;;14.70;36.36;103408.53;20993504;28;20052;-64
2024/01/09 08:55:28;;;;;;;2.63;1.50;;;;;;;15.03;35.91;103423.50;21013290;28;20044;-64
2024/01/09 09:05:30;;;;;;;2.65;1.60;;;;;;;15.54;36.47;103415.34;21031907;28;20052;-69
2024/01/09 09:15:34;;;;;;;1.67;1.25;;;;;;;16.40;35.32;103423.59;20988152;28;20101;-71
2024/01/09 09:25:35;;;;;;;1.52;1.25;;;;;;;16.81;35.19;103420.94;20988371;28;20527;-70
2024/01/09 09:35:37;;;;;;;2.45;1.75;;;;;;;17.17;35.03;103422.94;21012098;28;20564;-70
2024/01/09 09:45:41;;;;;;;2.15;1.40;;;;;;;17.39;34.87;103421.97;20985918;28;20063;-72
2024/01/09 09:55:45;;;;;;;1.77;1.48;;;;;;;17.51;35.19;103421.38;20982339;28;20317;-69
2024/01/09 10:05:47;;;;;;;2.88;1.80;;;;;;;17.70;35.80;103409.75;21011865;28;20060;-70
2024/01/09 10:15:59;;;;;;;2.88;1.52;;;;;;;17.83;36.00;103410.91;21013019;28;20051;-70
2024/01/09 10:26:02;;;;;;;6.55;5.95;;;;;;;17.96;38.69;103391.44;21002236;28;20066;-67
2024/01/09 10:36:04;;;;;;;3.15;2.47;;;;;;;17.76;39.35;103393.28;20997215;28;20108;-67
2024/01/09 10:46:06;;;;;;;3.08;2.10;;;;;;;17.50;39.50;103378.38;21020908;28;20570;-66
2024/01/09 10:56:09;;;;;;;2.38;1.83;;;;;;;17.49;39.18;103376.63;20981135;28;20105;-66
2024/01/09 11:06:11;;;;;;;3.47;2.40;;;;;;;18.62;38.04;103353.97;21002824;28;20121;-65
2024/01/09 11:16:15;;;;;;;2.70;2.30;;;;;;;20.26;35.75;103349.38;20980904;28;20496;-66
2024/01/09 11:26:18;;;;;;;2.07;1.87;;;;;;;20.89;34.43;103344.69;20999723;28;20101;-65
2024/01/09 11:36:24;;;;;;;2.10;1.80;;;;;;;21.50;33.18;103335.41;21027604;28;20062;-66
2024/01/09 11:46:27;;;;;;;1.65;1.55;;;;;;;20.49;33.50;103322.75;21026068;28;20205;-65
2024/01/09 11:56:30;;;;;;;2.92;1.65;;;;;;;19.32;34.07;103316.03;20998517;28;20109;-65
2024/01/09 12:06:33;;;;;;;2.55;1.63;;;;;;;19.03;34.39;103312.25;21041633;28;20050;-66
2024/01/09 12:16:35;;;;;;;1.73;1.50;;;;;;;18.89;34.14;103304.88;21023205;28;20055;-65
2024/01/09 12:26:37;;;;;;;2.65;2.00;;;;;;;20.42;32.76;103301.50;21039246;28;20133;-65
2024/01/09 12:36:39;;;;;;;2.38;1.80;;;;;;;22.09;30.52;103307.94;21003100;28;20059;-65
2024/01/09 12:46:45;;;;;;;1.60;1.50;;;;;;;21.95;30.35;103291.75;21019123;28;20059;-66
2024/01/09 12:56:48;;;;;;;1.90;1.70;;;;;;;20.86;30.99;103283.47;20958929;28;20147;-66
2024/01/09 13:06:50;;;;;;;1.90;1.70;;;;;;;20.10;31.47;103273.69;21008775;28;20060;-65
2024/01/09 13:16:52;;;;;;;1.77;1.67;;;;;;;19.65;31.85;103252.03;20952143;28;20052;-66
2024/01/09 13:26:54;;;;;;;1.85;1.60;;;;;;;19.10;32.17;103265.06;20951770;28;20055;-66
2024/01/09 13:36:56;;;;;;;1.85;1.40;;;;;;;18.59;32.58;103248.94;20968879;28;20051;-66
2024/01/09 13:46:59;;;;;;;1.48;1.33;;;;;;;18.27;33.01;103242.47;21030422;28;20573;-65
2024/01/09 13:57:01;;;;;;;2.67;1.50;;;;;;;18.14;32.95;103243.25;20978250;28;20135;-66
2024/01/09 14:07:09;;;;;;;1.50;1.40;;;;;;;18.00;32.91;103234.00;21030472;28;20397;-65
2024/01/09 14:17:11;;;;;;;2.03;1.30;;;;;;;17.81;32.89;103205.31;21048304;28;20596;-66
2024/01/09 14:27:13;;;;;;;1.83;1.30;;;;;;;17.86;32.81;103225.78;21014373;28;20082;-66
2024/01/09 14:37:14;;;;;;;1.55;1.25;;;;;;;17.78;32.90;103215.38;21029015;28;20058;-66
2024/01/09 14:47:18;;;;;;;2.00;1.30;;;;;;;17.75;32.85;103200.25;21010516;28;20075;-66
2024/01/09 14:57:20;;;;;;;1.20;1.10;;;;;;;17.71;32.89;103187.91;20992168;28;20849;-65
2024/01/09 15:07:23;;;;;;;1.48;1.20;;;;;;;17.64;32.67;103186.44;21025622;28;20052;-66
2024/01/09 15:17:25;;;;;;;1.88;1.20;;;;;;;17.57;32.69;103182.31;21023334;28;20059;-66
2024/01/09 15:27:26;;;;;;;1.25;1.00;;;;;;;17.50;32.76;103177.25;21026262;28;20052;-66
2024/01/09 15:37:28;;;;;;;1.30;1.20;;;;;;;17.50;32.69;103173.72;21018163;28;20458;-65
2024/01/09 15:47:30;;;;;;;1.20;1.10;;;;;;;17.43;32.73;103186.59;20941868;28;20510;-66
2024/01/09 15:57:32;;;;;;;1.20;1.10;;;;;;;17.40;32.87;103184.91;21010465;28;20054;-65
2024/01/09 16:07:34;;;;;;;1.23;1.10;;;;;;;17.37;32.75;103178.84;21022150;28;20143;-65
2024/01/09 16:17:36;;;;;;;1.33;0.90;;;;;;;17.38;32.82;103188.66;21021680;28;20076;-66
2024/01/09 16:27:38;;;;;;;1.50;0.90;;;;;;;17.29;32.81;103197.19;21004476;28;20127;-65
2024/01/09 16:37:40;;;;;;;1.58;1.38;;;;;;;17.28;32.89;103200.84;21002885;28;20052;-65
2024/01/09 16:47:42;;;;;;;1.85;1.30;;;;;;;17.27;33.10;103202.66;20962212;28;20044;-69
2024/01/09 16:57:45;;;;;;;1.40;1.23;;;;;;;17.28;33.44;103192.75;21005835;28;20131;-72
2024/01/09 17:07:47;;;;;;;1.38;1.17;;;;;;;17.12;35.34;103196.19;21004358;28;20052;-70
2024/01/09 17:17:49;;;;;;;16.67;5.63;;;;;;;16.78;37.47;103198.66;20977648;28;20133;-65
2024/01/09 17:27:52;;;;;;;6.53;2.08;;;;;;;16.84;38.94;103208.28;20985639;28;20055;-66
2024/01/09 17:37:54;;;;;;;6.70;2.40;;;;;;;16.82;40.36;103191.34;21005093;28;20055;-68
2024/01/09 17:47:56;;;;;;;3.75;1.98;;;;;;;16.93;40.55;103205.13;20986095;28;20051;-67
2024/01/09 17:57:59;;;;;;;4.32;1.50;;;;;;;16.90;40.14;103210.66;20979064;28;20048;-69
2024/01/09 18:08:04;;;;;;;4.63;1.42;;;;;;;16.67;40.21;103214.44;21019442;28;20070;-72
2024/01/09 18:18:06;;;;;;;3.20;1.67;;;;;;;16.66;40.58;103228.84;21045788;28;20397;-66
2024/01/09 18:28:08;;;;;;;5.53;1.80;;;;;;;16.71;40.69;103231.28;21006335;28;20080;-65
2024/01/09 18:38:10;;;;;;;3.20;1.73;;;;;;;16.60;40.40;103229.13;21032504;28;20052;-65
2024/01/09 18:48:14;;;;;;;3.25;1.60;;;;;;;16.49;40.07;103237.69;20983646;28;20078;-65
2024/01/09 18:58:16;;;;;;;3.78;1.67;;;;;;;16.39;39.97;103215.69;20989902;28;20052;-65
2024/01/09 19:08:18;;;;;;;2.35;1.20;;;;;;;16.37;39.88;103207.72;20995343;28;20048;-65
2024/01/09 19:18:20;;;;;;;2.90;1.77;;;;;;;16.35;39.80;103209.59;21019463;28;20144;-65
2024/01/09 19:28:22;;;;;;;2.63;1.50;;;;;;;16.30;39.47;103194.63;20987877;28;20058;-64
2024/01/09 19:38:23;;;;;;;2.58;1.27;;;;;;;16.29;39.47;103192.88;20956712;28;20416;-64
2024/01/09 19:48:25;;;;;;;1.85;1.42;;;;;;;16.34;39.28;103180.09;20975033;28;20404;-65
2024/01/09 19:58:27;;;;;;;2.08;1.42;;;;;;;16.29;39.20;103180.28;20990412;28;20052;-67
2024/01/09 20:08:29;;;;;;;1.98;1.40;;;;;;;16.24;39.35;103179.63;21003859;28;20139;-67
2024/01/09 20:18:31;;;;;;;2.88;1.52;;;;;;;16.24;39.25;103163.50;20959112;28;20056;-64
2024/01/09 20:28:36;;;;;;;2.20;1.80;;;;;;;16.34;38.87;103170.19;21000617;28;20075;-66
2024/01/09 20:38:38;;;;;;;5.53;2.53;;;;;;;16.27;39.94;103152.63;21008261;28;20055;-64
2024/01/09 20:48:40;;;;;;;4.07;2.13;;;;;;;16.18;41.18;103147.66;21014032;28;20416;-64
2024/01/09 20:58:42;;;;;;;3.53;2.10;;;;;;;16.18;41.26;103148.56;20996728;28;20044;-65
2024/01/09 21:08:44;;;;;;;3.05;2.30;;;;;;;16.16;41.34;103150.44;20986128;28;20044;-65
2024/01/09 21:18:45;;;;;;;4.47;1.90;;;;;;;16.08;41.08;103148.09;20995589;28;20048;-65
2024/01/09 21:28:48;;;;;;;2.97;2.03;;;;;;;15.95;40.95;103147.75;21013002;28;20669;-66
2024/01/09 21:38:50;;;;;;;3.95;2.20;;;;;;;15.85;41.07;103140.13;21010465;28;20052;-65
2024/01/09 21:48:54;;;;;;;2.50;2.10;;;;;;;15.76;40.89;103144.97;21010662;28;20097;-65
2024/01/09 21:59:02;;;;;;;2.65;2.22;;;;;;;15.69;40.38;103130.09;21027358;28;20515;-65
2024/01/09 22:09:05;;;;;;;2.67;1.95;;;;;;;15.63;40.33;103130.34;21026285;28;20055;-64
2024/01/09 22:19:07;;;;;;;3.42;2.05;;;;;;;15.60;40.23;103122.44;21024312;28;20131;-64
2024/01/09 22:29:09;;;;;;;2.53;2.00;;;;;;;15.55;40.19;103116.41;21001657;28;20047;-64
2024/01/09 22:39:11;;;;;;;3.75;2.35;;;;;;;15.46;40.02;103110.47;21032803;28;20137;-64
2024/01/09 22:49:13;;;;;;;2.58;2.00;;;;;;;15.44;39.71;103100.75;21024029;28;20044;-64
2024/01/09 22:59:14;;;;;;;2.83;1.98;;;;;;;15.39;39.76;103097.38;21004256;28;20048;-64
2024/01/09 23:09:16;;;;;;;2.58;2.00;;;;;;;15.37;39.81;103084.91;20993568;28;20130;-64
2024/01/09 23:19:18;;;;;;;3.15;2.17;;;;;;;15.35;39.47;103083.22;21019359;28;20492;-64
2024/01/09 23:29:20;;;;;;;3.80;2.13;;;;;;;15.33;38.90;103074.34;21001410;28;20052;-64
2024/01/09 23:39:22;;;;;;;2.15;1.92;;;;;;;15.32;39.04;103060.09;21008035;28;20052;-64
2024/01/09 23:49:23;;;;;;;2.05;1.77;;;;;;;15.29;39.11;103051.28;20985210;28;20070;-64
2024/01/09 23:59:25;;;;;;;3.08;2.53;;;;;;;15.31;38.49;103044.03;20990111;28;20496;-64
